Time;durP1;ratioP1;P1;durP2;ratioP2;P2;SDS_P1;SDS_P2;PMS_P1;PMS_P2;Temp;Humidity;BMP_temperature;BMP_pressure;BME280_temperature;BME280_humidity;BME280_pressure;Samples;Min_cycle;Max_cycle;Signal;HPM_P1;HPM_P2
2022/08/04 00:02:01;;;;;;;;;;;;;;;21.65;77.58;100297.38;4985937;28;1290;-87
2022/08/04 00:04:48;;;;;;;;;;;;;;;21.50;78.78;100296.22;4991307;28;1822;-86
2022/08/04 00:07:34;;;;;;;;;;;;;;;21.64;78.45;100287.41;4995205;28;1868;-86
2022/08/04 00:10:00;;;;;;;;;;;;;;;21.69;76.89;100290.72;4995803;28;1796;-86
2022/08/04 00:12:29;;;;;;;;;;;;;;;21.74;77.32;100286.88;4992031;28;1454;-86
2022/08/04 00:14:56;;;;;;;;;;;;;;;21.64;77.12;100290.19;4987160;28;1556;-86
2022/08/04 00:17:24;;;;;;;;;;;;;;;21.53;78.23;100293.50;4994069;28;1737;-86
2022/08/04 00:19:52;;;;;;;;;;;;;;;21.51;78.34;100290.31;4990913;28;1998;-87
2022/08/04 00:22:21;;;;;;;;;;;;;;;21.44;78.13;100290.09;4990924;28;1276;-86
2022/08/04 00:24:46;;;;;;;;;;;;;;;21.53;78.51;100293.50;4982617;28;1307;-87
2022/08/04 00:27:12;;;;;;;;;;;;;;;21.47;77.33;100289.38;4991378;28;1666;-86
2022/08/04 00:29:38;;;;;;;;;;;;;;;21.53;77.52;100290.72;4994674;28;1417;-86
2022/08/04 00:32:05;;;;;;;;;;;;;;;21.49;77.25;100287.06;4994987;28;1988;-86
2022/08/04 00:34:30;;;;;;;;;;;;;;;21.37;78.50;100291.88;4993196;28;1709;-86
2022/08/04 00:36:56;;;;;;;;;;;;;;;21.31;78.28;100296.91;4995114;28;2002;-86
2022/08/04 00:39:21;;;;;;;;;;;;;;;21.26;78.37;100294.41;4985624;28;1961;-86
2022/08/04 00:41:49;;;;;;;;;;;;;;;21.33;78.08;100297.38;5005690;28;1394;-87
2022/08/04 00:44:22;;;;;;;;;;;;;;;21.23;77.79;100295.13;4989638;28;1698;-87
2022/08/04 00:46:55;;;;;;;;;;;;;;;21.05;77.80;100300.16;4996338;28;1517;-87
2022/08/04 00:49:23;;;;;;;;;;;;;;;20.87;78.88;100298.03;4995873;28;1740;-86
2022/08/04 00:51:55;;;;;;;;;;;;;;;20.93;78.62;100294.63;4998325;28;1757;-87
2022/08/04 00:54:35;;;;;;;;;;;;;;;20.93;78.19;100291.84;4998402;28;1573;-86
2022/08/04 00:57:01;;;;;;;;;;;;;;;20.73;78.58;100287.34;4982599;28;1535;-86
2022/08/04 00:59:26;;;;;;;;;;;;;;;20.66;79.63;100287.13;4995910;28;1902;-86
2022/08/04 01:02:06;;;;;;;;;;;;;;;20.73;79.98;100288.13;4989772;28;1339;-88
2022/08/04 01:04:40;;;;;;;;;;;;;;;20.89;79.34;100281.81;4996871;28;1656;-87
2022/08/04 01:07:14;;;;;;;;;;;;;;;20.90;79.29;100280.66;4997703;28;1676;-88
2022/08/04 01:09:42;;;;;;;;;;;;;;;20.97;78.78;100286.41;4998496;28;1106;-87
2022/08/04 01:12:17;;;;;;;;;;;;;;;20.93;78.74;100291.84;4996625;28;1945;-87
2022/08/04 01:14:42;;;;;;;;;;;;;;;20.94;79.30;100284.31;4993433;28;2058;-87
2022/08/04 01:17:26;;;;;;;;;;;;;;;20.87;78.96;100289.69;4996105;28;1484;-87
2022/08/04 01:20:07;;;;;;;;;;;;;;;20.78;79.76;100290.66;4990139;28;1886;-88
2022/08/04 01:22:32;;;;;;;;;;;;;;;20.71;79.74;100282.13;4998106;28;1504;-87
2022/08/04 01:25:01;;;;;;;;;;;;;;;20.73;79.58;100281.78;4983586;28;1812;-86
2022/08/04 01:27:39;;;;;;;;;;;;;;;20.84;79.16;100279.28;4986631;28;1676;-87
2022/08/04 01:30:04;;;;;;;;;;;;;;;20.60;79.29;100278.22;4992801;28;1406;-86
2022/08/04 01:32:47;;;;;;;;;;;;;;;20.41;80.51;100269.72;4991012;28;1721;-86
2022/08/04 01:35:28;;;;;;;;;;;;;;;20.50;79.48;100275.13;4995860;28;1673;-87
2022/08/04 01:37:59;;;;;;;;;;;;;;;20.35;79.98;100274.69;4990064;28;1512;-86
2022/08/04 01:40:25;;;;;;;;;;;;;;;20.38;80.02;100275.97;4987988;28;1965;-87
2022/08/04 01:42:51;;;;;;;;;;;;;;;20.42;79.89;100267.72;4995301;28;1542;-86
2022/08/04 01:45:16;;;;;;;;;;;;;;;20.22;80.33;100277.84;4995379;28;1517;-88
2022/08/04 01:47:49;;;;;;;;;;;;;;;20.01;81.09;100264.88;4989447;28;1632;-86
2022/08/04 01:50:14;;;;;;;;;;;;;;;20.33;80.07;100267.84;4991424;28;1454;-87
2022/08/04 01:52:41;;;;;;;;;;;;;;;20.05;80.35;100278.91;4986894;28;1762;-87
2022/08/04 01:55:09;;;;;;;;;;;;;;;19.90;81.20;100262.94;4993234;28;1219;-86
2022/08/04 01:57:35;;;;;;;;;;;;;;;20.06;80.52;100268.59;4997368;28;1742;-87
2022/08/04 02:00:01;;;;;;;;;;;;;;;19.92;80.80;100269.75;4996925;28;1955;-87
2022/08/04 02:02:26;;;;;;;;;;;;;;;20.08;80.39;100274.59;4997442;28;1627;-88
2022/08/04 02:04:51;;;;;;;;;;;;;;;20.12;80.09;100267.19;4988928;28;1984;-87
2022/08/04 02:07:26;;;;;;;;;;;;;;;20.00;80.56;100265.22;4990819;28;1631;-88
2022/08/04 02:10:01;;;;;;;;;;;;;;;19.99;80.52;100264.41;4978544;28;1000;-86
2022/08/04 02:12:39;;;;;;;;;;;;;;;20.05;80.60;100259.44;4981195;28;1633;-86
2022/08/04 02:15:11;;;;;;;;;;;;;;;20.03;80.76;100258.97;4991798;28;1364;-87
2022/08/04 02:17:59;;;;;;;;;;;;;;;19.65;82.36;100245.47;4987033;28;1822;-86
2022/08/04 02:20:27;;;;;;;;;;;;;;;19.61;81.98;100252.88;4991194;28;2299;-87
2022/08/04 02:23:00;;;;;;;;;;;;;;;19.66;81.19;100249.88;4996728;28;2282;-86
2022/08/04 02:25:27;;;;;;;;;;;;;;;19.63;81.73;100247.81;4996856;28;1349;-87
2022/08/04 02:28:05;;;;;;;;;;;;;;;19.89;81.06;100245.47;4996787;28;1557;-86
2022/08/04 02:30:38;;;;;;;;;;;;;;;19.98;80.57;100253.69;4996679;28;1570;-87
2022/08/04 02:33:06;;;;;;;;;;;;;;;19.98;80.65;100246.16;4988866;28;1565;-88
2022/08/04 02:35:34;;;;;;;;;;;;;;;19.79;80.16;100243.16;4991928;28;1592;-86
2022/08/04 02:38:22;;;;;;;;;;;;;;;19.61;81.09;100247.34;4997014;28;1490;-87
2022/08/04 02:40:48;;;;;;;;;;;;;;;19.46;81.33;100239.66;4980447;28;1933;-88
2022/08/04 02:43:23;;;;;;;;;;;;;;;19.41;82.59;100246.25;5031054;23;1973;-85
2022/08/04 02:45:59;;;;;;;;;;;;;;;19.52;81.36;100243.84;5004639;28;1900;-85
2022/08/04 02:48:25;;;;;;;;;;;;;;;19.74;80.89;100239.78;5012985;28;1120;-84
2022/08/04 02:50:53;;;;;;;;;;;;;;;19.67;80.18;100240.38;5009642;28;1593;-85
2022/08/04 02:53:24;;;;;;;;;;;;;;;19.65;80.82;100243.50;5005935;28;1277;-85
2022/08/04 02:55:51;;;;;;;;;;;;;;;19.68;80.22;100244.78;4992526;28;1585;-85
2022/08/04 02:58:18;;;;;;;;;;;;;;;19.55;81.17;100232.06;4993002;28;1766;-85
2022/08/04 03:00:44;;;;;;;;;;;;;;;19.65;80.82;100231.56;4994285;28;1922;-85
2022/08/04 03:03:15;;;;;;;;;;;;;;;19.54;81.72;100241.56;4993013;28;1832;-85
2022/08/04 03:05:46;;;;;;;;;;;;;;;19.49;81.23;100238.97;4992222;28;1663;-85
2022/08/04 03:08:18;;;;;;;;;;;;;;;19.57;81.22;100232.50;4990297;28;1259;-85
2022/08/04 03:10:58;;;;;;;;;;;;;;;19.47;81.78;100232.97;4989533;28;1702;-85
2022/08/04 03:13:29;;;;;;;;;;;;;;;19.41;81.01;100232.38;4991585;28;1425;-85
2022/08/04 03:16:09;;;;;;;;;;;;;;;19.43;81.88;100229.25;4998759;28;1524;-85
2022/08/04 03:18:53;;;;;;;;;;;;;;;19.23;81.97;100231.75;4993400;28;1192;-85
2022/08/04 03:21:21;;;;;;;;;;;;;;;19.23;81.96;100230.94;4992685;28;1961;-85
2022/08/04 03:24:04;;;;;;;;;;;;;;;19.01;81.95;100225.84;4991987;28;1467;-85
2022/08/04 03:26:39;;;;;;;;;;;;;;;19.06;82.43;100226.41;4992209;28;1324;-85
2022/08/04 03:32:45;;;;;;;;;;;;;;;19.01;82.08;100229.41;4989723;28;1731;-85
2022/08/04 03:35:29;;;;;;;;;;;;;;;18.90;82.31;100228.22;4992992;28;1726;-86
2022/08/04 03:38:18;;;;;;;;;;;;;;;18.84;81.99;100224.06;4992760;28;1515;-85
2022/08/04 03:40:58;;;;;;;;;;;;;;;18.99;82.42;100226.19;4993127;28;1902;-85
2022/08/04 03:43:34;;;;;;;;;;;;;;;18.98;81.98;100223.75;4980675;28;1694;-85
2022/08/04 03:46:27;;;;;;;;;;;;;;;19.05;81.99;100222.06;4992780;28;1746;-85
2022/08/04 03:49:28;;;;;;;;;;;;;;;19.10;81.89;100219.03;4986101;28;1677;-85
2022/08/04 03:54:43;;;;;;;;;;;;;;;18.95;82.23;100222.47;4991666;28;1666;-85
2022/08/04 03:57:27;;;;;;;;;;;;;;;18.87;82.00;100226.16;4992104;28;1330;-85
2022/08/04 03:59:52;;;;;;;;;;;;;;;18.97;82.15;100222.16;4993736;28;1894;-85
2022/08/04 04:02:32;;;;;;;;;;;;;;;18.89;81.70;100232.16;4993080;28;1527;-85
2022/08/04 04:05:16;;;;;;;;;;;;;;;18.86;82.82;100224.53;5012235;28;1468;-85
2022/08/04 04:08:00;;;;;;;;;;;;;;;18.82;82.33;100221.63;4994211;28;1497;-86
2022/08/04 04:10:51;;;;;;;;;;;;;;;18.76;82.73;100223.00;4993898;28;1230;-87
2022/08/04 04:13:25;;;;;;;;;;;;;;;18.92;82.26;100228.72;4992372;28;1754;-86
2022/08/04 04:16:09;;;;;;;;;;;;;;;19.05;82.14;100230.38;4992886;28;1730;-85
2022/08/04 04:18:50;;;;;;;;;;;;;;;18.82;82.89;100223.59;4996195;28;1384;-85
2022/08/04 04:21:35;;;;;;;;;;;;;;;18.89;83.69;100212.75;4997320;28;1895;-86
2022/08/04 04:24:19;;;;;;;;;;;;;;;18.76;83.10;100225.78;4995926;28;1686;-86
2022/08/04 04:26:47;;;;;;;;;;;;;;;18.94;83.49;100225.59;4996507;28;1521;-87
2022/08/04 04:29:21;;;;;;;;;;;;;;;18.81;82.91;100225.53;4997353;28;1693;-86
2022/08/04 04:34:54;;;;;;;;;;;;;;;18.84;82.85;100219.31;4988720;28;1337;-86
2022/08/04 04:37:34;;;;;;;;;;;;;;;18.82;82.38;100218.03;4987011;28;1587;-86
2022/08/04 04:40:16;;;;;;;;;;;;;;;18.93;82.14;100222.00;5011900;28;1965;-85
2022/08/04 04:42:46;;;;;;;;;;;;;;;19.05;81.75;100230.38;4995663;28;1384;-85
2022/08/04 04:45:11;;;;;;;;;;;;;;;19.03;82.55;100226.31;4996284;28;1363;-86
2022/08/04 04:47:39;;;;;;;;;;;;;;;18.93;82.92;100222.00;4995353;28;1540;-86
2022/08/04 04:53:39;;;;;;;;;;;;;;;18.85;84.18;100229.28;4974659;28;1835;-86
2022/08/04 04:56:16;;;;;;;;;;;;;;;18.99;84.21;100228.13;4941021;28;1326;-86
2022/08/04 04:58:42;;;;;;;;;;;;;;;19.07;84.44;100228.03;4988358;28;1358;-86
2022/08/04 05:01:17;;;;;;;;;;;;;;;19.16;83.17;100228.75;4995774;28;1902;-86
2022/08/04 05:03:45;;;;;;;;;;;;;;;19.22;82.82;100229.34;4996019;28;1217;-86
2022/08/04 05:06:28;;;;;;;;;;;;;;;19.07;83.06;100227.22;4996495;28;1745;-86
2022/08/04 05:09:11;;;;;;;;;;;;;;;19.03;84.34;100220.75;4996926;28;1210;-86
2022/08/04 05:11:44;;;;;;;;;;;;;;;18.96;84.70;100223.28;4992784;28;1704;-86
2022/08/04 05:14:19;;;;;;;;;;;;;;;18.95;85.19;100225.25;5008529;28;1384;-85
2022/08/04 05:16:46;;;;;;;;;;;;;;;18.99;84.74;100222.59;4997531;28;1507;-85
2022/08/04 05:19:17;;;;;;;;;;;;;;;19.08;85.48;100223.31;4995876;28;1480;-86
2022/08/04 05:21:48;;;;;;;;;;;;;;;19.10;85.11;100227.38;4990730;28;1898;-86
2022/08/04 05:24:16;;;;;;;;;;;;;;;19.21;84.79;100228.53;4994940;28;1356;-86
2022/08/04 05:26:43;;;;;;;;;;;;;;;19.14;86.03;100228.28;4994852;28;1384;-86
2022/08/04 05:29:10;;;;;;;;;;;;;;;19.24;86.20;100229.81;4995223;28;1512;-86
2022/08/04 05:31:38;;;;;;;;;;;;;;;19.31;85.48;100232.81;4989006;28;1480;-86
2022/08/04 05:34:06;;;;;;;;;;;;;;;19.36;86.82;100224.28;4995080;28;1730;-86
2022/08/04 05:36:43;;;;;;;;;;;;;;;19.48;85.82;100226.28;4983030;28;1830;-86
2022/08/04 05:39:16;;;;;;;;;;;;;;;19.61;85.88;100220.38;4992053;28;1641;-86
2022/08/04 05:41:42;;;;;;;;;;;;;;;19.70;86.05;100219.44;4992447;28;1957;-86
2022/08/04 05:44:07;;;;;;;;;;;;;;;19.72;86.48;100225.47;4994855;28;1761;-87
2022/08/04 05:46:34;;;;;;;;;;;;;;;19.75;86.26;100222.78;4995752;28;1852;-87
2022/08/04 05:48:59;;;;;;;;;;;;;;;19.80;86.90;100225.34;4997543;28;1722;-87
2022/08/04 05:51:25;;;;;;;;;;;;;;;19.88;86.58;100221.63;4994943;28;1808;-87
2022/08/04 05:53:51;;;;;;;;;;;;;;;19.95;86.87;100219.06;4994807;28;1694;-87
2022/08/04 05:56:17;;;;;;;;;;;;;;;20.02;86.13;100218.47;4995273;28;1888;-87
2022/08/04 05:58:43;;;;;;;;;;;;;;;20.09;86.28;100209.53;4994920;28;1754;-86
2022/08/04 06:01:10;;;;;;;;;;;;;;;20.10;86.83;100219.50;4994670;28;1914;-87
2022/08/04 06:03:36;;;;;;;;;;;;;;;20.12;86.34;100208.84;4994981;28;1283;-87
2022/08/04 06:06:02;;;;;;;;;;;;;;;20.17;86.79;100214.94;4996157;28;1727;-86
2022/08/04 06:08:28;;;;;;;;;;;;;;;20.19;86.54;100214.59;4992431;28;1484;-87
2022/08/04 06:10:56;;;;;;;;;;;;;;;20.18;87.06;100205.47;5007739;28;1413;-87
2022/08/04 06:13:27;;;;;;;;;;;;;;;20.20;86.63;100210.66;4993388;28;1393;-87
2022/08/04 06:15:54;;;;;;;;;;;;;;;20.24;86.23;100215.19;4995390;28;1192;-87
2022/08/04 06:18:20;;;;;;;;;;;;;;;20.25;86.50;100204.84;4992046;28;1710;-87
2022/08/04 06:20:46;;;;;;;;;;;;;;;20.27;86.87;100208.09;4994997;28;1890;-86
2022/08/04 06:23:13;;;;;;;;;;;;;;;20.30;86.49;100201.84;5001109;28;1630;-86
2022/08/04 06:25:45;;;;;;;;;;;;;;;20.34;86.16;100203.56;4995364;28;1602;-88
2022/08/04 06:28:12;;;;;;;;;;;;;;;20.36;86.00;100206.00;4976997;28;980;-87
2022/08/04 06:30:38;;;;;;;;;;;;;;;20.40;86.32;100201.38;4975254;28;1202;-88
2022/08/04 06:33:22;;;;;;;;;;;;;;;20.44;86.33;100199.50;4987794;28;1745;-87
2022/08/04 06:35:48;;;;;;;;;;;;;;;20.43;86.62;100194.28;4994731;28;1371;-86
2022/08/04 06:38:13;;;;;;;;;;;;;;;20.46;86.72;100199.94;4993729;28;1680;-87
2022/08/04 06:40:39;;;;;;;;;;;;;;;20.51;86.41;100196.09;4994645;28;1890;-87
2022/08/04 06:43:05;;;;;;;;;;;;;;;20.52;86.41;100198.53;4993916;28;1292;-87
2022/08/04 06:45:33;;;;;;;;;;;;;;;20.57;86.61;100200.25;4994313;28;1515;-87
2022/08/04 06:47:58;;;;;;;;;;;;;;;20.60;86.09;100193.97;4994377;28;1278;-87
2022/08/04 06:50:24;;;;;;;;;;;;;;;20.63;85.95;100193.28;4993992;28;1433;-87
2022/08/04 06:52:49;;;;;;;;;;;;;;;20.62;85.44;100195.25;4994078;28;1284;-88
2022/08/04 06:55:14;;;;;;;;;;;;;;;20.69;85.22;100192.66;4992955;28;1822;-87
2022/08/04 06:57:40;;;;;;;;;;;;;;;20.75;85.41;100191.25;4991947;28;1418;-88
2022/08/04 07:00:11;;;;;;;;;;;;;;;20.76;85.23;100192.03;4974626;28;1891;-88
2022/08/04 07:02:42;;;;;;;;;;;;;;;20.77;85.67;100194.47;4976049;28;924;-87
2022/08/04 07:05:09;;;;;;;;;;;;;;;20.77;84.92;100188.09;4975280;28;1643;-87
2022/08/04 07:07:34;;;;;;;;;;;;;;;20.81;84.85;100186.22;4991676;28;1445;-87
2022/08/04 07:10:00;;;;;;;;;;;;;;;20.84;84.89;100187.50;4993400;28;1565;-87
2022/08/04 07:12:26;;;;;;;;;;;;;;;20.90;84.62;100183.28;4994794;28;1063;-87
2022/08/04 07:14:52;;;;;;;;;;;;;;;20.97;85.10;100181.47;4994553;28;1765;-87
2022/08/04 07:17:19;;;;;;;;;;;;;;;21.04;84.99;100178.06;4993532;28;1666;-87
2022/08/04 07:19:45;;;;;;;;;;;;;;;21.07;84.86;100178.16;4993667;28;1875;-87
2022/08/04 07:22:10;;;;;;;;;;;;;;;21.10;84.61;100180.22;4993455;28;1713;-87
2022/08/04 07:24:37;;;;;;;;;;;;;;;21.13;83.66;100173.94;4992661;28;1476;-87
2022/08/04 07:27:02;;;;;;;;;;;;;;;21.18;84.23;100172.09;4994184;28;1205;-88
2022/08/04 07:29:28;;;;;;;;;;;;;;;21.23;84.19;100171.81;4993299;28;1773;-87
2022/08/04 07:31:54;;;;;;;;;;;;;;;21.27;83.65;100173.50;4993488;28;1693;-87
2022/08/04 07:34:21;;;;;;;;;;;;;;;21.30;84.35;100172.81;4993005;28;1331;-88
2022/08/04 07:36:47;;;;;;;;;;;;;;;21.36;84.20;100160.22;4993145;28;1519;-87
2022/08/04 07:39:12;;;;;;;;;;;;;;;21.45;83.53;100168.38;4993664;28;1770;-86
2022/08/04 07:41:40;;;;;;;;;;;;;;;21.50;83.55;100168.13;4994422;28;1882;-87
2022/08/04 07:44:06;;;;;;;;;;;;;;;21.50;83.31;100163.34;4993877;28;1270;-88
2022/08/04 07:46:31;;;;;;;;;;;;;;;21.55;84.72;100161.44;4992667;28;1710;-87
2022/08/04 07:48:58;;;;;;;;;;;;;;;21.60;83.13;100161.19;4994118;28;801;-86
2022/08/04 07:51:23;;;;;;;;;;;;;;;21.65;83.04;100163.69;4993392;28;1483;-88
2022/08/04 07:53:48;;;;;;;;;;;;;;;21.71;82.98;100162.22;4989870;28;1749;-87
2022/08/04 07:56:15;;;;;;;;;;;;;;;21.80;82.83;100160.03;4993543;28;1374;-87
2022/08/04 07:58:40;;;;;;;;;;;;;;;21.68;81.60;100126.75;4989478;28;1424;-86
2022/08/04 08:01:06;;;;;;;;;;;;;;;21.95;81.18;100150.03;4992614;28;1898;-87
2022/08/04 08:03:31;;;;;;;;;;;;;;;22.07;81.86;100144.31;4991429;28;1341;-86
2022/08/04 08:05:56;;;;;;;;;;;;;;;22.10;82.52;100146.41;4984383;28;1449;-87
2022/08/04 08:08:21;;;;;;;;;;;;;;;22.18;81.97;100137.81;4992052;28;1519;-87
2022/08/04 08:10:47;;;;;;;;;;;;;;;22.29;80.32;100140.78;4993348;28;1472;-86
2022/08/04 08:13:12;;;;;;;;;;;;;;;22.41;77.39;100137.06;4992755;28;1663;-86
2022/08/04 08:15:38;;;;;;;;;;;;;;;22.50;77.15;100143.22;4991777;28;1660;-83
2022/08/04 08:18:03;;;;;;;;;;;;;;;22.59;73.37;100130.63;5006735;28;1311;-86
2022/08/04 08:20:29;;;;;;;;;;;;;;;22.81;75.36;100125.47;4993546;28;1901;-87
2022/08/04 08:22:54;;;;;;;;;;;;;;;22.74;74.27;100128.94;4992178;28;1373;-85
2022/08/04 08:25:20;;;;;;;;;;;;;;;22.80;74.10;100123.84;4992562;28;1469;-87
2022/08/04 08:27:45;;;;;;;;;;;;;;;22.84;73.47;100128.34;4992676;28;1211;-87
2022/08/04 08:30:10;;;;;;;;;;;;;;;22.96;70.12;100130.94;4990665;28;1200;-87
2022/08/04 08:32:35;;;;;;;;;;;;;;;22.97;71.22;100126.94;4992358;28;1301;-87
2022/08/04 08:35:01;;;;;;;;;;;;;;;23.00;69.61;100120.63;4992629;28;1222;-88
2022/08/04 08:37:33;;;;;;;;;;;;;;;22.99;71.92;100119.00;4989101;28;1383;-87
2022/08/04 08:40:20;;;;;;;;;;;;;;;22.99;71.24;100124.59;4973195;28;1949;-87
2022/08/04 08:43:04;;;;;;;;;;;;;;;23.20;69.42;100121.38;4969370;28;1455;-87
2022/08/04 08:46:02;;;;;;;;;;;;;;;23.22;71.84;100126.59;4994061;28;1067;-87
2022/08/04 08:48:47;;;;;;;;;;;;;;;23.30;69.91;100119.94;4960081;28;1268;-86
2022/08/04 08:51:31;;;;;;;;;;;;;;;23.32;69.97;100120.34;4991451;28;1403;-87
2022/08/04 08:54:12;;;;;;;;;;;;;;;23.40;68.34;100127.63;4992121;28;1205;-87
2022/08/04 08:57:01;;;;;;;;;;;;;;;23.49;67.49;100122.63;4992568;28;1283;-87
2022/08/04 08:59:38;;;;;;;;;;;;;;;23.52;67.68;100121.06;4992486;28;1260;-87
2022/08/04 09:02:12;;;;;;;;;;;;;;;23.54;67.61;100115.91;4992896;28;1320;-87
2022/08/04 09:05:06;;;;;;;;;;;;;;;23.64;64.36;100132.84;4996312;28;1660;-85
2022/08/04 09:07:31;;;;;;;;;;;;;;;23.70;65.21;100128.53;4957504;28;1777;-87
2022/08/04 09:10:15;;;;;;;;;;;;;;;23.79;65.54;100128.25;4976411;28;1349;-87
2022/08/04 09:12:49;;;;;;;;;;;;;;;23.84;64.60;100124.31;4976321;28;1188;-86
2022/08/04 09:15:16;;;;;;;;;;;;;;;23.87;65.04;100117.97;4982185;28;1395;-87
2022/08/04 09:17:41;;;;;;;;;;;;;;;23.88;65.56;100112.00;4988496;28;1396;-87
2022/08/04 09:20:09;;;;;;;;;;;;;;;23.97;64.99;100111.72;4996926;28;1890;-87
2022/08/04 09:22:39;;;;;;;;;;;;;;;24.08;65.67;100112.63;4995571;28;1186;-87
2022/08/04 09:25:12;;;;;;;;;;;;;;;24.13;66.70;100126.28;4995636;28;1564;-87
2022/08/04 09:27:42;;;;;;;;;;;;;;;24.18;64.95;100117.56;4995655;28;1389;-87
2022/08/04 09:30:09;;;;;;;;;;;;;;;24.25;64.66;100112.06;4977419;28;821;-87
2022/08/04 09:32:37;;;;;;;;;;;;;;;24.33;64.81;100108.16;4992435;28;1401;-87
2022/08/04 09:35:23;;;;;;;;;;;;;;;24.34;66.29;100108.97;4994773;28;1441;-86
2022/08/04 09:38:15;;;;;;;;;;;;;;;24.46;67.39;100117.91;4998346;28;1516;-85
2022/08/04 09:40:43;;;;;;;;;;;;;;;24.54;65.73;100118.00;4996451;28;1961;-86
2022/08/04 09:43:17;;;;;;;;;;;;;;;24.54;65.73;100115.19;4995172;28;1381;-85
2022/08/04 09:45:56;;;;;;;;;;;;;;;24.60;65.43;100113.66;4986648;28;1353;-86
2022/08/04 09:48:33;;;;;;;;;;;;;;;24.68;65.17;100106.94;4978677;28;1340;-86
2022/08/04 09:50:58;;;;;;;;;;;;;;;24.73;65.99;100109.41;4999976;28;1694;-85
2022/08/04 09:53:53;;;;;;;;;;;;;;;24.68;65.01;100107.75;4999765;28;1295;-85
2022/08/04 09:56:33;;;;;;;;;;;;;;;24.67;63.37;100102.56;4990791;28;1150;-86
2022/08/04 09:59:22;;;;;;;;;;;;;;;24.85;63.12;100097.91;4994641;28;1347;-87
2022/08/04 10:01:48;;;;;;;;;;;;;;;24.85;64.32;100101.50;4995756;28;1950;-86
2022/08/04 10:04:14;;;;;;;;;;;;;;;24.84;65.30;100093.47;4996790;28;1327;-86
2022/08/04 10:06:59;;;;;;;;;;;;;;;24.81;65.20;100100.69;5005777;28;1493;-87
2022/08/04 10:09:43;;;;;;;;;;;;;;;24.84;65.46;100093.47;4998927;28;1307;-85
2022/08/04 10:12:20;;;;;;;;;;;;;;;24.95;64.54;100083.22;4997971;28;1043;-86
2022/08/04 10:14:45;;;;;;;;;;;;;;;25.06;65.16;100088.91;4995943;28;1177;-87
2022/08/04 10:17:19;;;;;;;;;;;;;;;25.19;66.18;100085.41;4989491;28;1530;-88
2022/08/04 10:19:49;;;;;;;;;;;;;;;25.25;66.14;100085.88;4984559;28;1910;-85
2022/08/04 10:22:32;;;;;;;;;;;;;;;25.22;65.51;100079.03;5003560;28;1154;-87
2022/08/04 10:25:03;;;;;;;;;;;;;;;25.09;65.43;100074.94;5004842;28;1750;-87
2022/08/04 10:27:35;;;;;;;;;;;;;;;25.08;64.57;100073.34;4994360;28;1359;-87
2022/08/04 10:30:02;;;;;;;;;;;;;;;25.13;65.91;100077.75;4994502;28;1419;-87
2022/08/04 10:32:39;;;;;;;;;;;;;;;25.20;64.72;100078.59;4993894;28;1703;-87
2022/08/04 10:35:12;;;;;;;;;;;;;;;25.29;64.45;100075.47;4995297;28;1229;-87
2022/08/04 10:37:47;;;;;;;;;;;;;;;25.44;64.06;100068.75;4994116;28;1642;-87
2022/08/04 10:40:36;;;;;;;;;;;;;;;25.57;64.02;100075.66;4993930;28;1898;-87
2022/08/04 10:43:10;;;;;;;;;;;;;;;25.70;63.73;100078.13;4994959;28;1571;-87
2022/08/04 10:45:40;;;;;;;;;;;;;;;25.68;63.46;100069.34;4995179;28;1000;-87
2022/08/04 10:48:18;;;;;;;;;;;;;;;25.82;64.32;100061.78;4994026;28;1266;-87
2022/08/04 10:50:46;;;;;;;;;;;;;;;25.85;62.85;100063.81;5005948;28;1400;-87
2022/08/04 10:53:16;;;;;;;;;;;;;;;25.88;62.65;100060.19;4974075;28;1298;-87
2022/08/04 10:56:00;;;;;;;;;;;;;;;26.02;63.27;100055.84;4974373;28;1170;-87
2022/08/04 10:58:29;;;;;;;;;;;;;;;25.99;62.83;100049.84;4974262;28;1192;-87
2022/08/04 11:00:56;;;;;;;;;;;;;;;26.07;62.57;100052.66;4976434;28;1898;-87
2022/08/04 11:03:25;;;;;;;;;;;;;;;26.14;62.25;100044.25;4994521;28;1186;-87
2022/08/04 11:06:02;;;;;;;;;;;;;;;26.22;62.13;100051.50;4993179;28;1416;-87
2022/08/04 11:08:33;;;;;;;;;;;;;;;26.34;61.79;100045.56;4992450;28;1232;-87
2022/08/04 11:11:06;;;;;;;;;;;;;;;26.40;59.50;100043.16;4974084;28;1450;-87
2022/08/04 11:13:33;;;;;;;;;;;;;;;26.49;61.01;100043.56;4973909;28;1735;-88
2022/08/04 11:16:03;;;;;;;;;;;;;;;26.56;60.69;100030.34;4975722;28;1758;-88
2022/08/04 11:18:34;;;;;;;;;;;;;;;26.65;59.73;100038.34;4990039;28;1348;-87
2022/08/04 11:21:22;;;;;;;;;;;;;;;26.68;58.97;100032.75;4982262;28;1960;-87
2022/08/04 11:24:00;;;;;;;;;;;;;;;26.86;60.16;100029.16;4982795;28;1419;-87
2022/08/04 11:26:35;;;;;;;;;;;;;;;26.92;58.79;100030.38;4989468;28;1197;-88
2022/08/04 11:29:08;;;;;;;;;;;;;;;26.93;59.96;100027.16;4989679;28;1422;-87
2022/08/04 11:31:40;;;;;;;;;;;;;;;26.96;59.17;100023.56;4992907;28;1382;-87
2022/08/04 11:34:08;;;;;;;;;;;;;;;26.88;59.51;100026.75;4993768;28;1626;-87
2022/08/04 11:36:38;;;;;;;;;;;;;;;27.00;58.08;100020.72;4992334;28;1518;-87
2022/08/04 11:39:16;;;;;;;;;;;;;;;27.09;57.58;100023.94;4993022;28;1293;-88
2022/08/04 11:41:55;;;;;;;;;;;;;;;27.20;58.42;100021.09;4989044;28;1954;-88
2022/08/04 11:44:39;;;;;;;;;;;;;;;27.35;57.43;100017.84;4993974;28;1238;-88
2022/08/04 11:47:08;;;;;;;;;;;;;;;27.55;57.35;100011.81;4987004;28;1505;-87
2022/08/04 11:49:43;;;;;;;;;;;;;;;27.62;56.07;100011.78;4989827;28;1437;-88
2022/08/04 11:52:09;;;;;;;;;;;;;;;27.65;55.42;100006.13;4993118;28;1446;-87
2022/08/04 11:54:34;;;;;;;;;;;;;;;27.71;55.36;99996.06;4992838;28;1229;-87
2022/08/04 11:57:00;;;;;;;;;;;;;;;27.76;55.63;100003.28;4992979;28;1378;-88
2022/08/04 11:59:26;;;;;;;;;;;;;;;27.89;53.17;100009.25;4994143;28;1208;-87
2022/08/04 12:02:00;;;;;;;;;;;;;;;27.87;54.09;100001.22;4986039;28;1890;-88
2022/08/04 12:04:50;;;;;;;;;;;;;;;27.90;53.83;100010.84;4973211;28;1296;-88
2022/08/04 12:07:48;;;;;;;;;;;;;;;28.01;53.36;100005.94;4997602;28;1808;-88
2022/08/04 12:10:13;;;;;;;;;;;;;;;27.95;50.87;100013.22;4989702;28;1322;-87
2022/08/04 12:12:57;;;;;;;;;;;;;;;27.83;51.31;100017.28;4996777;28;1768;-87
2022/08/04 12:15:26;;;;;;;;;;;;;;;27.79;51.70;100016.53;4973638;28;1327;-88
2022/08/04 12:18:10;;;;;;;;;;;;;;;27.79;52.54;100010.91;4990832;28;1350;-88
2022/08/04 12:20:39;;;;;;;;;;;;;;;27.71;51.91;100007.31;4983979;28;1893;-88
2022/08/04 12:23:06;;;;;;;;;;;;;;;27.84;51.45;100007.66;4972989;28;1278;-87
2022/08/04 12:25:33;;;;;;;;;;;;;;;27.81;52.12;100014.91;5000337;28;1391;-87
2022/08/04 12:28:10;;;;;;;;;;;;;;;27.53;53.90;100014.19;4989881;28;1803;-87
2022/08/04 12:30:41;;;;;;;;;;;;;;;27.74;50.23;100008.50;4988506;28;1210;-88
2022/08/04 12:33:11;;;;;;;;;;;;;;;28.00;53.28;100015.59;4992980;28;1484;-88
2022/08/04 12:35:44;;;;;;;;;;;;;;;27.68;54.09;100018.56;4993498;28;1349;-87
2022/08/04 12:38:13;;;;;;;;;;;;;;;27.88;51.20;100005.63;4995914;28;1366;-87
2022/08/04 12:40:40;;;;;;;;;;;;;;;27.87;54.42;100009.66;4992797;28;1874;-88
2022/08/04 12:43:24;;;;;;;;;;;;;;;27.86;56.69;100011.66;4977577;28;1253;-88
2022/08/04 12:45:51;;;;;;;;;;;;;;;28.20;51.91;100003.47;4982540;28;1429;-87
2022/08/04 12:48:17;;;;;;;;;;;;;;;28.32;54.11;99998.56;4978097;28;1241;-87
2022/08/04 12:50:47;;;;;;;;;;;;;;;28.45;55.83;100003.28;4982193;28;1292;-87
2022/08/04 12:53:13;;;;;;;;;;;;;;;28.48;52.32;99991.22;4991023;28;1410;-87
2022/08/04 12:55:44;;;;;;;;;;;;;;;28.49;52.97;99987.19;5009852;28;1358;-87
2022/08/04 12:58:13;;;;;;;;;;;;;;;28.69;51.88;99981.75;5007613;28;1366;-88
2022/08/04 13:00:39;;;;;;;;;;;;;;;28.92;53.18;99976.34;4993396;28;1898;-88
2022/08/04 13:03:06;;;;;;;;;;;;;;;28.79;51.18;99980.09;4995437;28;1452;-88
2022/08/04 13:05:32;;;;;;;;;;;;;;;28.62;52.12;99981.81;4995182;28;1345;-87
2022/08/04 13:07:59;;;;;;;;;;;;;;;28.51;54.90;99978.28;4995559;28;1151;-88
2022/08/04 13:10:25;;;;;;;;;;;;;;;28.42;54.72;99994.84;4995419;28;1224;-87
2022/08/04 13:12:51;;;;;;;;;;;;;;;28.29;54.76;99983.31;4995783;28;1489;-87
2022/08/04 13:15:22;;;;;;;;;;;;;;;28.19;55.15;99978.53;4999159;28;1374;-88
2022/08/04 13:17:53;;;;;;;;;;;;;;;28.17;55.24;99983.78;4990174;28;1490;-87
2022/08/04 13:20:44;;;;;;;;;;;;;;;28.17;54.17;99978.16;5014962;28;1882;-87
2022/08/04 13:23:15;;;;;;;;;;;;;;;28.15;51.74;99978.56;4986173;28;1347;-87
2022/08/04 13:25:44;;;;;;;;;;;;;;;28.33;51.55;99981.25;4997007;28;1237;-87